createdAt,value
2023-04-29T00:01:20.045Z,95.90
2023-04-29T00:04:05.783Z,96.00
2023-04-29T00:06:51.586Z,96.10
2023-04-29T00:09:38.847Z,96.00
2023-04-29T00:12:26.757Z,96.00
2023-04-29T00:15:12.205Z,95.90
2023-04-29T00:17:58.028Z,95.80
2023-04-29T00:20:46.546Z,95.80
2023-04-29T00:23:34.006Z,95.70
2023-04-29T00:26:20.179Z,95.70
2023-04-29T00:29:07.506Z,95.60
2023-04-29T00:31:53.175Z,95.40
2023-04-29T00:34:38.937Z,95.40
2023-04-29T00:37:25.987Z,95.30
2023-04-29T00:40:13.628Z,95.20
2023-04-29T00:42:59.015Z,95.30
2023-04-29T00:45:47.021Z,95.30
2023-04-29T00:48:34.756Z,95.20
2023-04-29T00:51:20.041Z,95.10
2023-04-29T00:54:05.838Z,95.10
2023-04-29T00:56:55.496Z,95.10
2023-04-29T00:59:47.410Z,95.20
2023-04-29T01:02:33.570Z,95.10
2023-04-29T01:05:19.392Z,95.00
2023-04-29T01:08:32.248Z,94.80
2023-04-29T01:11:23.546Z,94.90
2023-04-29T01:14:09.748Z,95.10
2023-04-29T01:17:06.331Z,95.00
2023-04-29T01:20:02.076Z,95.00
2023-04-29T01:22:47.570Z,94.90
2023-04-29T01:25:32.863Z,95.20
2023-04-29T01:28:50.005Z,94.90
2023-04-29T01:31:53.563Z,94.80
2023-04-29T01:34:44.547Z,94.80
2023-04-29T01:37:54.767Z,94.90
2023-04-29T01:40:57.316Z,94.90
2023-04-29T01:43:44.693Z,95.10
2023-04-29T01:46:54.196Z,95.00
2023-04-29T01:49:47.028Z,94.90
2023-04-29T01:52:32.739Z,95.00
2023-04-29T01:55:20.210Z,94.90
2023-04-29T01:58:36.587Z,95.00
2023-04-29T02:01:59.036Z,95.10
2023-04-29T02:04:48.673Z,95.20
2023-04-29T02:07:34.315Z,95.40
2023-04-29T02:10:39.524Z,95.10
2023-04-29T02:13:49.076Z,95.00
2023-04-29T02:16:34.796Z,95.00
2023-04-29T02:19:23.172Z,95.00
2023-04-29T02:22:12.813Z,94.80
2023-04-29T02:24:59.929Z,95.10
2023-04-29T02:27:45.675Z,95.00
2023-04-29T02:30:30.996Z,95.00
2023-04-29T02:33:16.408Z,94.80
2023-04-29T02:36:02.004Z,94.80
2023-04-29T02:38:47.298Z,94.70
2023-04-29T02:41:33.901Z,94.60
2023-04-29T02:44:19.761Z,94.70
2023-04-29T02:47:05.388Z,94.70
2023-04-29T02:49:52.272Z,94.60
2023-04-29T02:52:38.044Z,94.60
2023-04-29T02:55:23.223Z,94.30
2023-04-29T02:58:09.242Z,94.10
2023-04-29T03:00:56.151Z,94.10
2023-04-29T03:03:42.214Z,94.10
2023-04-29T03:06:28.186Z,94.10
2023-04-29T03:09:14.510Z,94.10
2023-04-29T03:12:03.244Z,94.10
2023-04-29T03:14:49.209Z,94.00
2023-04-29T03:17:35.040Z,93.90
2023-04-29T03:20:22.692Z,93.80
2023-04-29T03:23:08.315Z,93.70
2023-04-29T03:25:55.907Z,93.60
2023-04-29T03:28:42.327Z,93.60
2023-04-29T03:31:28.023Z,93.60
2023-04-29T03:34:15.462Z,93.60
2023-04-29T03:37:07.031Z,93.60
2023-04-29T03:39:55.836Z,93.40
2023-04-29T03:42:41.689Z,93.50
2023-04-29T03:45:29.887Z,93.40
2023-04-29T03:48:15.471Z,93.40
2023-04-29T03:51:01.102Z,93.30
2023-04-29T03:53:46.623Z,93.20
2023-04-29T03:56:32.200Z,93.30
2023-04-29T03:59:18.753Z,93.30
2023-04-29T04:02:04.345Z,93.10
2023-04-29T04:04:50.466Z,93.10
2023-04-29T04:07:36.029Z,93.00
2023-04-29T04:10:40.713Z,93.10
2023-04-29T04:13:43.517Z,93.00
2023-04-29T04:16:29.851Z,93.10
2023-04-29T04:19:17.113Z,93.00
2023-04-29T04:22:05.529Z,92.90
2023-04-29T04:24:51.630Z,92.90
2023-04-29T04:27:38.057Z,92.80
2023-04-29T04:30:30.695Z,92.80
2023-04-29T04:33:16.732Z,92.90
2023-04-29T04:36:05.147Z,93.20
2023-04-29T04:38:51.033Z,92.90
2023-04-29T04:41:36.431Z,92.90
2023-04-29T04:44:22.478Z,92.80
2023-04-29T04:47:23.766Z,92.70
2023-04-29T04:50:30.218Z,92.80
2023-04-29T04:53:15.743Z,92.60
2023-04-29T04:56:24.049Z,92.70
2023-04-29T04:59:09.738Z,92.60
2023-04-29T05:01:57.250Z,92.50
2023-04-29T05:04:43.150Z,92.60
2023-04-29T05:07:28.330Z,92.70
2023-04-29T05:10:26.456Z,92.80
2023-04-29T05:13:16.090Z,92.70
2023-04-29T05:16:06.718Z,93.20
2023-04-29T05:18:53.172Z,92.90
2023-04-29T05:21:39.041Z,92.90
2023-04-29T05:24:27.460Z,92.90
2023-04-29T05:27:15.921Z,93.00
2023-04-29T05:30:01.742Z,93.00
2023-04-29T05:32:48.849Z,93.00
2023-04-29T05:35:36.773Z,93.10
2023-04-29T05:38:29.019Z,93.10
2023-04-29T05:41:29.186Z,93.10
2023-04-29T05:44:30.537Z,93.20
2023-04-29T05:47:17.174Z,93.20
2023-04-29T05:50:02.771Z,93.20
2023-04-29T05:52:51.844Z,93.50
2023-04-29T05:55:38.338Z,93.10
2023-04-29T05:58:23.873Z,93.20
2023-04-29T06:01:09.563Z,93.10
2023-04-29T06:03:55.030Z,93.00
2023-04-29T06:06:46.428Z,92.80
2023-04-29T06:10:11.014Z,92.80
2023-04-29T06:13:01.093Z,93.00
2023-04-29T06:15:46.509Z,92.80
2023-04-29T06:18:33.317Z,92.90
2023-04-29T06:21:18.584Z,92.40
2023-04-29T06:24:04.662Z,91.90
2023-04-29T06:26:50.175Z,92.10
2023-04-29T06:29:37.611Z,91.90
2023-04-29T06:32:23.645Z,91.80
2023-04-29T06:35:09.245Z,91.80
2023-04-29T06:38:14.456Z,91.50
2023-04-29T06:41:01.296Z,91.10
2023-04-29T06:44:04.422Z,91.20
2023-04-29T06:47:12.991Z,91.00
2023-04-29T06:50:04.021Z,91.30
2023-04-29T06:52:49.581Z,90.80
2023-04-29T06:55:36.256Z,90.40
2023-04-29T06:58:21.936Z,90.20
2023-04-29T07:01:11.122Z,88.70
2023-04-29T07:03:57.719Z,87.70
2023-04-29T07:06:46.972Z,88.20
2023-04-29T07:09:32.486Z,86.10
2023-04-29T07:12:18.034Z,85.90
2023-04-29T07:15:03.422Z,86.10
2023-04-29T07:17:49.373Z,85.80
2023-04-29T07:20:40.069Z,85.70
2023-04-29T07:23:25.586Z,85.40
2023-04-29T07:26:12.179Z,85.60
2023-04-29T07:28:58.671Z,84.90
2023-04-29T07:31:43.950Z,85.10
2023-04-29T07:34:29.589Z,85.00
2023-04-29T07:37:14.982Z,85.00
2023-04-29T07:40:00.971Z,85.40
2023-04-29T07:42:48.156Z,85.50
2023-04-29T07:45:34.133Z,85.20
2023-04-29T07:48:22.563Z,85.70
2023-04-29T07:51:14.437Z,85.60
2023-04-29T07:54:01.642Z,85.90
2023-04-29T07:56:47.660Z,85.30
2023-04-29T07:59:33.236Z,85.30
2023-04-29T08:02:21.605Z,84.60
2023-04-29T08:05:10.655Z,84.60
2023-04-29T08:07:56.941Z,83.90
2023-04-29T08:10:44.379Z,82.50
2023-04-29T08:13:30.948Z,82.60
2023-04-29T08:16:16.608Z,82.60
2023-04-29T08:19:02.322Z,82.90
2023-04-29T08:21:49.285Z,82.70
2023-04-29T08:24:40.711Z,81.70
2023-04-29T08:27:27.213Z,81.90
2023-04-29T08:30:12.764Z,81.90
2023-04-29T08:32:58.264Z,81.00
2023-04-29T08:35:43.679Z,79.90
2023-04-29T08:38:32.379Z,79.40
2023-04-29T08:41:26.326Z,79.20
2023-04-29T08:44:12.472Z,78.20
2023-04-29T08:46:59.565Z,77.20
2023-04-29T08:49:45.903Z,78.00
2023-04-29T08:52:34.479Z,75.90
2023-04-29T08:55:20.851Z,76.20
2023-04-29T08:58:06.896Z,76.20
2023-04-29T09:01:00.211Z,76.70
2023-04-29T09:04:09.162Z,74.70
2023-04-29T09:06:57.109Z,73.30
2023-04-29T09:09:43.494Z,73.60
2023-04-29T09:12:30.752Z,73.50
2023-04-29T09:15:16.897Z,73.00
2023-04-29T09:18:02.644Z,73.00
2023-04-29T09:20:49.097Z,71.70
2023-04-29T09:23:38.010Z,70.90
2023-04-29T09:26:24.411Z,71.40
2023-04-29T09:29:19.619Z,70.40
2023-04-29T09:32:20.627Z,70.70
2023-04-29T09:35:21.549Z,71.30
2023-04-29T09:38:17.121Z,71.80
2023-04-29T09:41:09.980Z,70.50
2023-04-29T09:44:06.905Z,69.50
2023-04-29T09:47:06.367Z,68.00
2023-04-29T09:49:52.703Z,67.30
2023-04-29T09:52:42.407Z,67.10
2023-04-29T09:55:28.208Z,67.00
2023-04-29T09:58:29.997Z,68.00
2023-04-29T10:01:20.350Z,66.40
2023-04-29T10:04:08.940Z,66.30
2023-04-29T10:06:55.934Z,66.70
2023-04-29T10:09:41.761Z,65.20
2023-04-29T10:12:27.225Z,66.20
2023-04-29T10:15:52.270Z,66.50
2023-04-29T10:18:40.807Z,65.90
2023-04-29T10:21:31.500Z,65.60
2023-04-29T10:24:19.701Z,65.00
2023-04-29T10:27:12.302Z,64.60
2023-04-29T10:30:01.111Z,63.60
2023-04-29T10:32:52.032Z,63.20
2023-04-29T10:35:39.781Z,62.00
2023-04-29T10:38:45.646Z,62.20
2023-04-29T10:41:37.389Z,62.00
2023-04-29T10:44:24.082Z,60.90
2023-04-29T10:47:20.194Z,60.80
2023-04-29T10:50:06.014Z,59.00
2023-04-29T10:52:52.127Z,58.70
2023-04-29T10:55:38.693Z,58.80
2023-04-29T10:58:37.575Z,58.30
2023-04-29T11:01:44.335Z,58.20
2023-04-29T11:04:31.721Z,57.40
2023-04-29T11:07:30.681Z,57.60
2023-04-29T11:10:16.417Z,56.80
2023-04-29T11:13:21.244Z,56.20
2023-04-29T11:16:08.679Z,55.90
2023-04-29T11:19:16.159Z,55.40
2023-04-29T11:22:09.685Z,54.30
2023-04-29T11:25:03.264Z,52.60
2023-04-29T11:27:51.335Z,50.40
2023-04-29T11:30:38.418Z,48.70
2023-04-29T11:33:25.166Z,46.80
2023-04-29T11:36:14.342Z,45.20
2023-04-29T11:39:04.363Z,43.40
2023-04-29T11:41:52.385Z,41.20
2023-04-29T11:44:38.045Z,40.10
2023-04-29T11:47:31.468Z,39.20
2023-04-29T11:50:19.888Z,37.10
2023-04-29T11:53:06.040Z,35.50
2023-04-29T11:55:56.053Z,34.50
2023-04-29T11:58:43.762Z,32.90
2023-04-29T12:01:29.049Z,31.90
2023-04-29T12:04:14.537Z,30.50
2023-04-29T12:07:00.293Z,29.50
2023-04-29T12:09:47.531Z,29.10
2023-04-29T12:12:36.532Z,28.60
2023-04-29T12:15:24.756Z,27.80
2023-04-29T12:18:11.584Z,27.20
2023-04-29T12:20:57.477Z,26.50
2023-04-29T12:23:43.238Z,26.00
2023-04-29T12:26:30.724Z,26.30
2023-04-29T12:29:16.128Z,26.10
2023-04-29T12:32:01.342Z,26.90
2023-04-29T12:34:47.502Z,27.10
2023-04-29T12:37:33.970Z,26.70
2023-04-29T12:40:20.805Z,26.20
2023-04-29T12:43:10.727Z,26.00
2023-04-29T12:46:16.203Z,26.60
2023-04-29T12:49:04.041Z,26.00
2023-04-29T12:51:49.712Z,26.10
2023-04-29T12:54:36.520Z,25.40
2023-04-29T12:57:22.905Z,25.10
2023-04-29T13:00:08.957Z,24.30
2023-04-29T13:02:54.672Z,23.70
2023-04-29T13:05:41.176Z,23.00
2023-04-29T13:08:27.306Z,23.40
2023-04-29T13:11:13.642Z,24.10
2023-04-29T13:13:59.182Z,24.90
2023-04-29T13:16:45.239Z,26.30
2023-04-29T13:19:46.940Z,26.90
2023-04-29T13:22:37.231Z,27.70
2023-04-29T13:25:22.676Z,28.40
2023-04-29T13:28:08.209Z,29.40
2023-04-29T13:30:54.373Z,30.30
2023-04-29T13:33:44.540Z,31.60
2023-04-29T13:36:32.824Z,32.60
2023-04-29T13:39:19.977Z,32.40
2023-04-29T13:42:06.516Z,33.40
2023-04-29T13:44:53.390Z,35.40
2023-04-29T13:47:57.638Z,37.60
2023-04-29T13:51:09.756Z,35.40
2023-04-29T13:59:44.955Z,28.70
2023-04-29T14:02:34.089Z,28.00
2023-04-29T14:05:20.561Z,27.80
2023-04-29T14:08:06.583Z,26.60
2023-04-29T14:10:51.844Z,25.60
2023-04-29T14:13:37.344Z,24.70
2023-04-29T14:16:22.870Z,23.80
2023-04-29T14:19:08.589Z,23.80
2023-04-29T14:21:54.290Z,24.00
2023-04-29T14:24:42.792Z,24.80
2023-04-29T14:27:28.096Z,25.70
2023-04-29T14:30:13.688Z,26.10
2023-04-29T14:32:58.996Z,27.00
2023-04-29T14:35:44.452Z,28.40
2023-04-29T14:38:29.613Z,29.80
2023-04-29T14:41:16.365Z,29.90
2023-04-29T14:44:04.939Z,29.70
2023-04-29T14:46:50.333Z,29.70
2023-04-29T14:49:35.745Z,28.60
2023-04-29T14:52:21.273Z,27.00
2023-04-29T14:55:07.800Z,26.00
2023-04-29T14:57:53.740Z,25.60
2023-04-29T15:00:39.097Z,25.10
2023-04-29T15:03:25.413Z,24.00
2023-04-29T15:06:12.029Z,23.10
2023-04-29T15:09:23.314Z,22.50
2023-04-29T15:12:09.731Z,21.70
2023-04-29T15:14:56.247Z,21.60
2023-04-29T15:17:42.047Z,21.10
2023-04-29T15:20:27.503Z,21.00
2023-04-29T15:23:12.796Z,20.80
2023-04-29T15:25:58.663Z,21.00
2023-04-29T15:28:45.717Z,20.70
2023-04-29T15:31:31.176Z,20.20
2023-04-29T15:34:16.518Z,20.20
2023-04-29T15:37:02.411Z,19.70
2023-04-29T15:39:47.804Z,19.80
2023-04-29T15:42:42.419Z,20.10
2023-04-29T15:45:27.654Z,20.10
2023-04-29T15:48:13.211Z,19.80
2023-04-29T15:50:58.511Z,19.30
2023-04-29T15:53:44.554Z,19.30
2023-04-29T15:56:32.499Z,19.50
2023-04-29T15:59:17.706Z,19.90
2023-04-29T16:02:03.685Z,20.10
2023-04-29T16:04:49.208Z,20.10
2023-04-29T16:07:35.554Z,20.10
2023-04-29T16:10:22.308Z,20.20
2023-04-29T16:13:08.023Z,20.20
2023-04-29T16:15:53.748Z,20.00
2023-04-29T16:18:39.613Z,20.70
2023-04-29T16:21:25.751Z,20.50
2023-04-29T16:24:17.696Z,20.90
2023-04-29T16:27:02.869Z,20.90
2023-04-29T16:29:48.303Z,20.70
2023-04-29T16:32:34.536Z,21.20
2023-04-29T16:35:25.103Z,21.30
2023-04-29T16:38:13.409Z,21.30
2023-04-29T16:40:58.559Z,21.70
2023-04-29T16:43:44.437Z,21.20
2023-04-29T16:46:30.290Z,21.80
2023-04-29T16:49:18.849Z,21.40
2023-04-29T16:52:04.541Z,21.50
2023-04-29T16:54:49.973Z,21.90
2023-04-29T16:57:35.754Z,21.30
2023-04-29T17:00:21.324Z,21.10
2023-04-29T17:03:09.271Z,21.10
2023-04-29T17:05:54.324Z,21.30
2023-04-29T17:08:39.677Z,21.50
2023-04-29T17:11:25.208Z,21.30
2023-04-29T17:14:10.765Z,22.20
2023-04-29T17:16:56.239Z,22.50
2023-04-29T17:19:41.687Z,22.50
2023-04-29T17:22:27.091Z,22.80
2023-04-29T17:25:15.814Z,22.70
2023-04-29T17:28:01.503Z,23.00
2023-04-29T17:30:46.958Z,22.70
2023-04-29T17:33:35.459Z,22.70
2023-04-29T17:36:21.428Z,22.60
2023-04-29T17:39:09.917Z,22.40
2023-04-29T17:41:55.558Z,22.60
2023-04-29T17:44:41.060Z,23.00
2023-04-29T17:47:26.296Z,23.30
2023-04-29T17:50:11.885Z,23.90
2023-04-29T17:52:57.300Z,24.40
2023-04-29T17:55:46.172Z,24.90
2023-04-29T17:58:31.411Z,25.20
2023-04-29T18:01:16.884Z,25.60
2023-04-29T18:04:02.784Z,26.00
2023-04-29T18:06:51.431Z,27.00
2023-04-29T18:09:36.723Z,28.10
2023-04-29T18:12:22.462Z,29.00
2023-04-29T18:15:09.589Z,29.70
2023-04-29T18:17:54.904Z,30.40
2023-04-29T18:20:43.808Z,31.60
2023-04-29T18:23:29.205Z,32.80
2023-04-29T18:26:15.278Z,34.10
2023-04-29T18:29:00.899Z,35.20
2023-04-29T18:31:46.227Z,36.50
2023-04-29T18:34:31.732Z,38.30
2023-04-29T18:37:16.900Z,39.60
2023-04-29T18:40:02.425Z,41.10
2023-04-29T18:42:47.773Z,42.40
2023-04-29T18:45:33.283Z,43.90
2023-04-29T18:48:21.768Z,45.20
2023-04-29T18:51:07.338Z,46.50
2023-04-29T18:53:52.500Z,47.60
2023-04-29T18:56:40.229Z,49.10
2023-04-29T18:59:26.798Z,50.30
2023-04-29T19:02:14.695Z,51.80
2023-04-29T19:05:05.830Z,52.60
2023-04-29T19:07:51.188Z,53.60
2023-04-29T19:10:36.749Z,55.50
2023-04-29T19:13:22.307Z,55.80
2023-04-29T19:16:07.435Z,56.30
2023-04-29T19:18:52.687Z,57.00
2023-04-29T19:21:38.442Z,57.80
2023-04-29T19:24:24.512Z,58.50
2023-04-29T19:27:16.574Z,59.20
2023-04-29T19:30:01.689Z,59.90
2023-04-29T19:32:47.141Z,60.30
2023-04-29T19:35:32.592Z,61.40
2023-04-29T19:38:17.953Z,61.90
2023-04-29T19:41:03.180Z,63.30
2023-04-29T19:43:48.555Z,63.90
2023-04-29T19:46:34.408Z,64.80
2023-04-29T19:49:20.415Z,65.40
2023-04-29T19:52:07.332Z,66.00
2023-04-29T19:54:52.473Z,67.00
2023-04-29T19:57:38.638Z,67.50
2023-04-29T20:00:23.925Z,68.20
2023-04-29T20:03:09.383Z,69.00
2023-04-29T20:05:59.098Z,69.40
2023-04-29T20:08:44.356Z,69.90
2023-04-29T20:11:29.859Z,70.40
2023-04-29T20:14:15.117Z,71.40
2023-04-29T20:17:00.827Z,72.00
2023-04-29T20:19:46.161Z,72.70
2023-04-29T20:22:31.583Z,73.70
2023-04-29T20:25:17.447Z,74.40
2023-04-29T20:28:04.123Z,74.60
2023-04-29T20:30:49.236Z,75.10
2023-04-29T20:33:34.693Z,75.60
2023-04-29T20:36:20.801Z,76.00
2023-04-29T20:39:06.849Z,76.70
2023-04-29T20:41:54.244Z,77.50
2023-04-29T20:44:39.796Z,78.20
2023-04-29T20:47:25.323Z,78.40
2023-04-29T20:50:12.168Z,78.50
2023-04-29T20:52:57.994Z,79.00
2023-04-29T20:55:43.681Z,79.40
2023-04-29T20:58:28.922Z,79.60
2023-04-29T21:01:14.661Z,80.00
2023-04-29T21:04:00.352Z,80.50
2023-04-29T21:06:45.665Z,80.70
2023-04-29T21:09:31.070Z,81.70
2023-04-29T21:12:17.537Z,81.70
2023-04-29T21:15:02.923Z,81.60
2023-04-29T21:17:48.139Z,81.80
2023-04-29T21:20:33.509Z,82.10
2023-04-29T21:23:19.075Z,82.20
2023-04-29T21:26:05.228Z,82.70
2023-04-29T21:28:50.614Z,83.00
2023-04-29T21:31:35.924Z,83.50
2023-04-29T21:34:24.666Z,84.00
2023-04-29T21:37:09.984Z,83.70
2023-04-29T21:39:57.384Z,83.90
2023-04-29T21:42:43.848Z,84.50
2023-04-29T21:45:29.343Z,84.80
2023-04-29T21:48:16.551Z,84.50
2023-04-29T21:51:05.011Z,84.70
2023-04-29T21:53:51.293Z,84.80
2023-04-29T21:56:36.728Z,84.70
2023-04-29T21:59:22.394Z,85.00
2023-04-29T22:02:22.917Z,85.20
2023-04-29T22:05:08.476Z,85.60
2023-04-29T22:07:53.860Z,86.40
2023-04-29T22:10:41.440Z,86.30
2023-04-29T22:13:26.756Z,86.70
2023-04-29T22:16:12.428Z,86.80
2023-04-29T22:18:58.093Z,86.70
2023-04-29T22:21:43.478Z,86.90
2023-04-29T22:24:28.976Z,87.10
2023-04-29T22:27:14.531Z,87.40
2023-04-29T22:29:59.890Z,87.70
2023-04-29T22:32:48.484Z,87.90
2023-04-29T22:35:33.796Z,88.20
2023-04-29T22:38:19.331Z,88.20
2023-04-29T22:41:05.757Z,88.30
2023-04-29T22:43:56.886Z,88.50
2023-04-29T22:46:42.620Z,88.80
2023-04-29T22:49:27.920Z,89.00
2023-04-29T22:52:13.241Z,89.20
2023-04-29T22:54:59.410Z,88.90
2023-04-29T22:57:44.757Z,88.90
2023-04-29T23:00:30.369Z,89.10
2023-04-29T23:03:15.973Z,89.50
2023-04-29T23:06:02.769Z,89.70
2023-04-29T23:08:48.358Z,89.90
2023-04-29T23:11:33.923Z,90.00
2023-04-29T23:14:21.278Z,90.10
2023-04-29T23:17:06.441Z,90.40
2023-04-29T23:19:52.252Z,90.70
2023-04-29T23:22:38.075Z,90.50
2023-04-29T23:25:23.231Z,90.40
2023-04-29T23:28:10.085Z,90.60
2023-04-29T23:30:58.349Z,90.40
2023-04-29T23:33:44.198Z,90.50
2023-04-29T23:36:29.785Z,90.90
2023-04-29T23:39:15.005Z,90.80
2023-04-29T23:42:00.915Z,91.10
2023-04-29T23:44:46.544Z,91.10
2023-04-29T23:47:31.957Z,91.10
2023-04-29T23:50:23.585Z,91.10
2023-04-29T23:53:09.195Z,91.20
2023-04-29T23:55:54.755Z,91.40
2023-04-29T23:58:40.090Z,91.40
